sensor_id;sensor_type;location;lat;lon;timestamp;P1;durP1;ratioP1;P2;durP2;ratioP2
59306;SDS011;47983;53.016;-2.260;2023-06-26T00:01:18;1.35;;;0.57;;
59306;SDS011;47983;53.016;-2.260;2023-06-26T00:03:49;4.63;;;0.70;;
59306;SDS011;47983;53.016;-2.260;2023-06-26T00:06:17;3.45;;;1.10;;
59306;SDS011;47983;53.016;-2.260;2023-06-26T00:08:45;11.43;;;1.40;;
59306;SDS011;47983;53.016;-2.260;2023-06-26T00:11:12;3.30;;;1.08;;
59306;SDS011;47983;53.016;-2.260;2023-06-26T00:13:40;5.88;;;1.40;;
59306;SDS011;47983;53.016;-2.260;2023-06-26T00:16:08;3.83;;;0.77;;
59306;SDS011;47983;53.016;-2.260;2023-06-26T00:18:37;3.85;;;1.30;;
59306;SDS011;47983;53.016;-2.260;2023-06-26T00:21:05;5.82;;;0.93;;
59306;SDS011;47983;53.016;-2.260;2023-06-26T00:23:33;4.80;;;1.05;;
59306;SDS011;47983;53.016;-2.260;2023-06-26T00:26:06;4.05;;;1.13;;
59306;SDS011;47983;53.016;-2.260;2023-06-26T00:28:34;3.30;;;1.00;;
59306;SDS011;47983;53.016;-2.260;2023-06-26T00:31:03;4.18;;;0.90;;
59306;SDS011;47983;53.016;-2.260;2023-06-26T00:33:32;5.10;;;1.10;;
59306;SDS011;47983;53.016;-2.260;2023-06-26T00:36:00;5.57;;;0.90;;
59306;SDS011;47983;53.016;-2.260;2023-06-26T00:38:27;4.07;;;1.67;;
59306;SDS011;47983;53.016;-2.260;2023-06-26T00:40:57;6.47;;;1.38;;
59306;SDS011;47983;53.016;-2.260;2023-06-26T00:43:25;3.55;;;0.80;;
59306;SDS011;47983;53.016;-2.260;2023-06-26T00:45:53;2.85;;;1.00;;
59306;SDS011;47983;53.016;-2.260;2023-06-26T00:48:21;4.75;;;1.35;;
59306;SDS011;47983;53.016;-2.260;2023-06-26T00:50:50;5.00;;;1.17;;
59306;SDS011;47983;53.016;-2.260;2023-06-26T00:53:18;8.50;;;1.55;;
59306;SDS011;47983;53.016;-2.260;2023-06-26T00:55:46;6.47;;;1.35;;
59306;SDS011;47983;53.016;-2.260;2023-06-26T00:58:14;5.03;;;1.25;;
59306;SDS011;47983;53.016;-2.260;2023-06-26T01:00:42;5.65;;;1.20;;
59306;SDS011;47983;53.016;-2.260;2023-06-26T01:03:13;4.57;;;1.10;;
59306;SDS011;47983;53.016;-2.260;2023-06-26T01:05:41;4.20;;;1.13;;
59306;SDS011;47983;53.016;-2.260;2023-06-26T01:08:12;7.82;;;1.50;;
59306;SDS011;47983;53.016;-2.260;2023-06-26T01:10:41;5.70;;;1.42;;
59306;SDS011;47983;53.016;-2.260;2023-06-26T01:13:11;7.88;;;1.45;;
59306;SDS011;47983;53.016;-2.260;2023-06-26T01:15:40;8.82;;;1.75;;
59306;SDS011;47983;53.016;-2.260;2023-06-26T01:18:08;4.63;;;1.50;;
59306;SDS011;47983;53.016;-2.260;2023-06-26T01:20:36;10.18;;;1.88;;
59306;SDS011;47983;53.016;-2.260;2023-06-26T01:28:25;3.30;;;1.80;;
59306;SDS011;47983;53.016;-2.260;2023-06-26T01:30:56;5.78;;;2.10;;
59306;SDS011;47983;53.016;-2.260;2023-06-26T01:33:25;8.60;;;2.38;;
59306;SDS011;47983;53.016;-2.260;2023-06-26T01:35:53;5.32;;;1.35;;
59306;SDS011;47983;53.016;-2.260;2023-06-26T01:38:22;5.65;;;1.55;;
59306;SDS011;47983;53.016;-2.260;2023-06-26T01:40:57;6.35;;;1.65;;
59306;SDS011;47983;53.016;-2.260;2023-06-26T01:46:22;7.13;;;1.73;;
59306;SDS011;47983;53.016;-2.260;2023-06-26T01:51:45;2.60;;;1.20;;
59306;SDS011;47983;53.016;-2.260;2023-06-26T01:54:25;4.80;;;1.38;;
59306;SDS011;47983;53.016;-2.260;2023-06-26T01:56:57;7.07;;;2.00;;
59306;SDS011;47983;53.016;-2.260;2023-06-26T01:59:26;2.58;;;1.40;;
59306;SDS011;47983;53.016;-2.260;2023-06-26T02:02:00;4.70;;;1.45;;
59306;SDS011;47983;53.016;-2.260;2023-06-26T02:04:28;5.97;;;1.70;;
59306;SDS011;47983;53.016;-2.260;2023-06-26T02:06:56;6.10;;;1.35;;
59306;SDS011;47983;53.016;-2.260;2023-06-26T02:09:24;5.35;;;1.50;;
59306;SDS011;47983;53.016;-2.260;2023-06-26T02:11:51;10.18;;;2.60;;
59306;SDS011;47983;53.016;-2.260;2023-06-26T02:14:19;6.85;;;1.55;;
59306;SDS011;47983;53.016;-2.260;2023-06-26T02:16:47;4.70;;;1.80;;
59306;SDS011;47983;53.016;-2.260;2023-06-26T02:19:14;7.90;;;1.60;;
59306;SDS011;47983;53.016;-2.260;2023-06-26T02:21:51;6.35;;;1.63;;
59306;SDS011;47983;53.016;-2.260;2023-06-26T02:24:19;9.20;;;1.98;;
59306;SDS011;47983;53.016;-2.260;2023-06-26T02:26:47;5.20;;;1.38;;
59306;SDS011;47983;53.016;-2.260;2023-06-26T02:29:16;6.38;;;2.28;;
59306;SDS011;47983;53.016;-2.260;2023-06-26T02:31:44;4.22;;;1.38;;
59306;SDS011;47983;53.016;-2.260;2023-06-26T02:34:11;9.88;;;1.52;;
59306;SDS011;47983;53.016;-2.260;2023-06-26T02:36:39;3.20;;;1.35;;
59306;SDS011;47983;53.016;-2.260;2023-06-26T02:39:07;6.53;;;1.70;;
59306;SDS011;47983;53.016;-2.260;2023-06-26T02:41:35;3.85;;;1.38;;
59306;SDS011;47983;53.016;-2.260;2023-06-26T02:44:04;5.75;;;1.35;;
59306;SDS011;47983;53.016;-2.260;2023-06-26T02:46:32;10.43;;;1.63;;
59306;SDS011;47983;53.016;-2.260;2023-06-26T02:49:00;4.55;;;1.52;;
59306;SDS011;47983;53.016;-2.260;2023-06-26T02:51:28;4.18;;;1.30;;
59306;SDS011;47983;53.016;-2.260;2023-06-26T02:53:58;10.82;;;1.33;;
59306;SDS011;47983;53.016;-2.260;2023-06-26T02:56:25;7.90;;;1.17;;
59306;SDS011;47983;53.016;-2.260;2023-06-26T02:58:56;4.28;;;1.48;;
59306;SDS011;47983;53.016;-2.260;2023-06-26T03:01:26;6.55;;;1.30;;
59306;SDS011;47983;53.016;-2.260;2023-06-26T03:03:54;4.53;;;1.63;;
59306;SDS011;47983;53.016;-2.260;2023-06-26T03:06:21;7.55;;;3.22;;
59306;SDS011;47983;53.016;-2.260;2023-06-26T03:08:49;4.82;;;1.63;;
59306;SDS011;47983;53.016;-2.260;2023-06-26T03:11:17;4.70;;;1.30;;
59306;SDS011;47983;53.016;-2.260;2023-06-26T03:13:45;5.28;;;1.70;;
59306;SDS011;47983;53.016;-2.260;2023-06-26T03:16:14;5.65;;;1.65;;
59306;SDS011;47983;53.016;-2.260;2023-06-26T03:18:41;4.80;;;1.48;;
59306;SDS011;47983;53.016;-2.260;2023-06-26T03:21:09;9.70;;;1.52;;
59306;SDS011;47983;53.016;-2.260;2023-06-26T03:26:07;4.80;;;1.45;;
59306;SDS011;47983;53.016;-2.260;2023-06-26T03:28:36;2.67;;;1.30;;
59306;SDS011;47983;53.016;-2.260;2023-06-26T03:31:04;7.47;;;1.88;;
59306;SDS011;47983;53.016;-2.260;2023-06-26T03:33:32;7.60;;;1.60;;
59306;SDS011;47983;53.016;-2.260;2023-06-26T03:35:59;1.75;;;1.38;;
59306;SDS011;47983;53.016;-2.260;2023-06-26T03:38:27;6.03;;;1.60;;
59306;SDS011;47983;53.016;-2.260;2023-06-26T03:40:57;5.15;;;1.88;;
59306;SDS011;47983;53.016;-2.260;2023-06-26T03:43:25;3.72;;;1.48;;
59306;SDS011;47983;53.016;-2.260;2023-06-26T03:46:16;5.57;;;1.60;;
59306;SDS011;47983;53.016;-2.260;2023-06-26T03:48:43;5.05;;;1.40;;
59306;SDS011;47983;53.016;-2.260;2023-06-26T03:51:11;6.55;;;1.33;;
59306;SDS011;47983;53.016;-2.260;2023-06-26T03:53:39;4.70;;;1.67;;
59306;SDS011;47983;53.016;-2.260;2023-06-26T03:56:07;3.42;;;1.42;;
59306;SDS011;47983;53.016;-2.260;2023-06-26T03:58:34;2.75;;;1.10;;
59306;SDS011;47983;53.016;-2.260;2023-06-26T04:01:02;4.55;;;1.35;;
59306;SDS011;47983;53.016;-2.260;2023-06-26T04:03:29;8.88;;;1.60;;
59306;SDS011;47983;53.016;-2.260;2023-06-26T04:05:58;2.60;;;1.20;;
59306;SDS011;47983;53.016;-2.260;2023-06-26T04:08:26;5.65;;;1.48;;
59306;SDS011;47983;53.016;-2.260;2023-06-26T04:10:55;6.68;;;1.40;;
59306;SDS011;47983;53.016;-2.260;2023-06-26T04:13:25;3.33;;;1.30;;
59306;SDS011;47983;53.016;-2.260;2023-06-26T04:15:53;4.95;;;1.17;;
59306;SDS011;47983;53.016;-2.260;2023-06-26T04:18:20;5.28;;;1.60;;
59306;SDS011;47983;53.016;-2.260;2023-06-26T04:23:35;2.95;;;1.27;;
59306;SDS011;47983;53.016;-2.260;2023-06-26T04:26:03;3.42;;;1.60;;
59306;SDS011;47983;53.016;-2.260;2023-06-26T04:28:35;4.90;;;1.55;;
59306;SDS011;47983;53.016;-2.260;2023-06-26T04:31:03;1.85;;;1.17;;
59306;SDS011;47983;53.016;-2.260;2023-06-26T04:33:31;5.45;;;1.50;;
59306;SDS011;47983;53.016;-2.260;2023-06-26T04:35:58;2.65;;;1.33;;
59306;SDS011;47983;53.016;-2.260;2023-06-26T04:38:31;4.07;;;1.20;;
59306;SDS011;47983;53.016;-2.260;2023-06-26T04:41:02;3.80;;;1.63;;
59306;SDS011;47983;53.016;-2.260;2023-06-26T04:43:30;3.95;;;1.42;;
59306;SDS011;47983;53.016;-2.260;2023-06-26T04:45:57;2.95;;;1.50;;
59306;SDS011;47983;53.016;-2.260;2023-06-26T04:48:25;1.50;;;0.98;;
59306;SDS011;47983;53.016;-2.260;2023-06-26T04:50:54;3.50;;;1.70;;
59306;SDS011;47983;53.016;-2.260;2023-06-26T04:53:23;2.38;;;1.30;;
59306;SDS011;47983;53.016;-2.260;2023-06-26T04:55:51;6.43;;;1.63;;
59306;SDS011;47983;53.016;-2.260;2023-06-26T04:58:19;3.78;;;0.80;;
59306;SDS011;47983;53.016;-2.260;2023-06-26T05:00:47;1.75;;;1.10;;
59306;SDS011;47983;53.016;-2.260;2023-06-26T05:03:16;5.05;;;1.58;;
59306;SDS011;47983;53.016;-2.260;2023-06-26T05:05:45;2.78;;;1.17;;
59306;SDS011;47983;53.016;-2.260;2023-06-26T05:08:16;2.90;;;1.23;;
59306;SDS011;47983;53.016;-2.260;2023-06-26T05:10:45;3.55;;;1.05;;
59306;SDS011;47983;53.016;-2.260;2023-06-26T05:13:13;4.43;;;1.30;;
59306;SDS011;47983;53.016;-2.260;2023-06-26T05:15:48;4.85;;;1.42;;
59306;SDS011;47983;53.016;-2.260;2023-06-26T05:18:17;1.92;;;1.05;;
59306;SDS011;47983;53.016;-2.260;2023-06-26T05:20:44;2.17;;;1.17;;
59306;SDS011;47983;53.016;-2.260;2023-06-26T05:23:12;3.15;;;1.35;;
59306;SDS011;47983;53.016;-2.260;2023-06-26T05:25:40;3.70;;;1.35;;
59306;SDS011;47983;53.016;-2.260;2023-06-26T05:28:08;3.08;;;1.27;;
59306;SDS011;47983;53.016;-2.260;2023-06-26T05:30:37;5.53;;;1.17;;
59306;SDS011;47983;53.016;-2.260;2023-06-26T05:33:06;3.00;;;0.98;;
59306;SDS011;47983;53.016;-2.260;2023-06-26T05:35:36;5.32;;;1.02;;
59306;SDS011;47983;53.016;-2.260;2023-06-26T05:38:04;2.35;;;1.08;;
59306;SDS011;47983;53.016;-2.260;2023-06-26T05:40:33;5.93;;;1.60;;
59306;SDS011;47983;53.016;-2.260;2023-06-26T05:43:02;2.78;;;1.15;;
59306;SDS011;47983;53.016;-2.260;2023-06-26T05:45:30;6.47;;;3.22;;
59306;SDS011;47983;53.016;-2.260;2023-06-26T05:47:58;3.70;;;1.50;;
59306;SDS011;47983;53.016;-2.260;2023-06-26T05:50:27;3.50;;;1.08;;
59306;SDS011;47983;53.016;-2.260;2023-06-26T05:52:56;8.88;;;1.70;;
59306;SDS011;47983;53.016;-2.260;2023-06-26T05:55:24;3.97;;;1.40;;
59306;SDS011;47983;53.016;-2.260;2023-06-26T05:57:52;3.80;;;1.27;;
59306;SDS011;47983;53.016;-2.260;2023-06-26T06:00:23;3.38;;;1.25;;
59306;SDS011;47983;53.016;-2.260;2023-06-26T06:05:22;6.43;;;1.63;;
59306;SDS011;47983;53.016;-2.260;2023-06-26T06:07:50;9.05;;;1.10;;
59306;SDS011;47983;53.016;-2.260;2023-06-26T06:10:18;5.07;;;1.55;;
59306;SDS011;47983;53.016;-2.260;2023-06-26T06:12:46;3.67;;;1.23;;
59306;SDS011;47983;53.016;-2.260;2023-06-26T06:15:14;4.20;;;1.02;;
59306;SDS011;47983;53.016;-2.260;2023-06-26T06:17:42;5.00;;;1.45;;
59306;SDS011;47983;53.016;-2.260;2023-06-26T06:20:09;4.18;;;1.27;;
59306;SDS011;47983;53.016;-2.260;2023-06-26T06:22:37;5.18;;;1.40;;
59306;SDS011;47983;53.016;-2.260;2023-06-26T06:25:05;5.85;;;1.20;;
59306;SDS011;47983;53.016;-2.260;2023-06-26T06:27:35;6.00;;;1.30;;
59306;SDS011;47983;53.016;-2.260;2023-06-26T06:30:03;1.90;;;0.80;;
59306;SDS011;47983;53.016;-2.260;2023-06-26T06:32:34;3.38;;;1.83;;
59306;SDS011;47983;53.016;-2.260;2023-06-26T06:35:01;4.30;;;1.10;;
59306;SDS011;47983;53.016;-2.260;2023-06-26T06:37:37;2.55;;;0.90;;
59306;SDS011;47983;53.016;-2.260;2023-06-26T06:40:06;6.00;;;1.00;;
59306;SDS011;47983;53.016;-2.260;2023-06-26T06:42:35;4.20;;;1.08;;
59306;SDS011;47983;53.016;-2.260;2023-06-26T06:45:04;5.63;;;1.15;;
59306;SDS011;47983;53.016;-2.260;2023-06-26T06:47:32;3.47;;;1.15;;
59306;SDS011;47983;53.016;-2.260;2023-06-26T06:50:01;5.80;;;1.35;;
59306;SDS011;47983;53.016;-2.260;2023-06-26T06:52:36;1.65;;;0.95;;
59306;SDS011;47983;53.016;-2.260;2023-06-26T06:55:05;3.72;;;1.00;;
59306;SDS011;47983;53.016;-2.260;2023-06-26T06:57:36;6.70;;;1.35;;
59306;SDS011;47983;53.016;-2.260;2023-06-26T07:00:09;4.20;;;1.30;;
59306;SDS011;47983;53.016;-2.260;2023-06-26T07:02:40;3.92;;;1.08;;
59306;SDS011;47983;53.016;-2.260;2023-06-26T07:05:10;3.90;;;1.13;;
59306;SDS011;47983;53.016;-2.260;2023-06-26T07:07:39;3.50;;;0.98;;
59306;SDS011;47983;53.016;-2.260;2023-06-26T07:10:07;5.07;;;1.00;;
59306;SDS011;47983;53.016;-2.260;2023-06-26T07:12:36;3.10;;;1.08;;
59306;SDS011;47983;53.016;-2.260;2023-06-26T07:15:05;8.90;;;1.50;;
59306;SDS011;47983;53.016;-2.260;2023-06-26T07:17:34;5.00;;;1.10;;
59306;SDS011;47983;53.016;-2.260;2023-06-26T07:20:02;10.82;;;1.50;;
59306;SDS011;47983;53.016;-2.260;2023-06-26T07:22:37;5.70;;;1.00;;
59306;SDS011;47983;53.016;-2.260;2023-06-26T07:25:05;6.00;;;1.02;;
59306;SDS011;47983;53.016;-2.260;2023-06-26T07:27:39;3.85;;;1.17;;
59306;SDS011;47983;53.016;-2.260;2023-06-26T07:30:08;5.40;;;1.30;;
59306;SDS011;47983;53.016;-2.260;2023-06-26T07:32:36;3.67;;;1.67;;
59306;SDS011;47983;53.016;-2.260;2023-06-26T07:35:05;4.68;;;1.40;;
59306;SDS011;47983;53.016;-2.260;2023-06-26T07:37:33;4.65;;;1.83;;
59306;SDS011;47983;53.016;-2.260;2023-06-26T07:40:01;8.77;;;1.60;;
59306;SDS011;47983;53.016;-2.260;2023-06-26T07:42:29;4.53;;;1.33;;
59306;SDS011;47983;53.016;-2.260;2023-06-26T07:44:56;3.50;;;0.95;;
59306;SDS011;47983;53.016;-2.260;2023-06-26T07:47:24;5.75;;;0.90;;
59306;SDS011;47983;53.016;-2.260;2023-06-26T07:49:52;1.55;;;0.80;;
59306;SDS011;47983;53.016;-2.260;2023-06-26T07:52:20;2.72;;;0.95;;
59306;SDS011;47983;53.016;-2.260;2023-06-26T07:54:47;4.45;;;1.27;;
59306;SDS011;47983;53.016;-2.260;2023-06-26T07:57:15;4.60;;;1.30;;
59306;SDS011;47983;53.016;-2.260;2023-06-26T07:59:43;5.53;;;1.23;;
59306;SDS011;47983;53.016;-2.260;2023-06-26T08:02:11;3.63;;;0.80;;
59306;SDS011;47983;53.016;-2.260;2023-06-26T08:04:38;5.22;;;1.13;;
59306;SDS011;47983;53.016;-2.260;2023-06-26T08:07:07;4.82;;;0.90;;
59306;SDS011;47983;53.016;-2.260;2023-06-26T08:09:35;6.60;;;1.10;;
59306;SDS011;47983;53.016;-2.260;2023-06-26T08:12:02;3.60;;;0.65;;
59306;SDS011;47983;53.016;-2.260;2023-06-26T08:14:32;4.43;;;1.05;;
59306;SDS011;47983;53.016;-2.260;2023-06-26T08:17:00;5.43;;;0.90;;
59306;SDS011;47983;53.016;-2.260;2023-06-26T08:19:27;6.35;;;1.05;;
59306;SDS011;47983;53.016;-2.260;2023-06-26T08:21:55;8.45;;;0.88;;
59306;SDS011;47983;53.016;-2.260;2023-06-26T08:24:23;7.00;;;1.05;;
59306;SDS011;47983;53.016;-2.260;2023-06-26T08:26:51;7.10;;;1.10;;
59306;SDS011;47983;53.016;-2.260;2023-06-26T08:29:19;6.78;;;0.90;;
59306;SDS011;47983;53.016;-2.260;2023-06-26T08:31:46;7.00;;;0.70;;
59306;SDS011;47983;53.016;-2.260;2023-06-26T08:34:14;5.18;;;1.05;;
59306;SDS011;47983;53.016;-2.260;2023-06-26T08:36:41;7.43;;;1.27;;
59306;SDS011;47983;53.016;-2.260;2023-06-26T08:39:10;5.13;;;0.80;;
59306;SDS011;47983;53.016;-2.260;2023-06-26T08:41:38;5.60;;;1.30;;
59306;SDS011;47983;53.016;-2.260;2023-06-26T08:44:05;5.75;;;0.73;;
59306;SDS011;47983;53.016;-2.260;2023-06-26T08:46:33;6.40;;;0.90;;
59306;SDS011;47983;53.016;-2.260;2023-06-26T08:49:01;5.55;;;0.93;;
59306;SDS011;47983;53.016;-2.260;2023-06-26T08:51:36;7.32;;;1.88;;
59306;SDS011;47983;53.016;-2.260;2023-06-26T08:54:07;3.80;;;0.80;;
59306;SDS011;47983;53.016;-2.260;2023-06-26T08:56:42;5.90;;;0.73;;
59306;SDS011;47983;53.016;-2.260;2023-06-26T08:59:11;7.30;;;0.80;;
59306;SDS011;47983;53.016;-2.260;2023-06-26T09:01:41;3.20;;;1.00;;
59306;SDS011;47983;53.016;-2.260;2023-06-26T09:04:09;4.25;;;0.70;;
59306;SDS011;47983;53.016;-2.260;2023-06-26T09:06:37;5.18;;;1.42;;
59306;SDS011;47983;53.016;-2.260;2023-06-26T09:09:06;4.80;;;0.85;;
59306;SDS011;47983;53.016;-2.260;2023-06-26T09:11:34;5.40;;;0.95;;
59306;SDS011;47983;53.016;-2.260;2023-06-26T09:14:02;6.82;;;1.30;;
59306;SDS011;47983;53.016;-2.260;2023-06-26T09:16:38;9.02;;;0.95;;
59306;SDS011;47983;53.016;-2.260;2023-06-26T09:19:09;3.40;;;1.08;;
59306;SDS011;47983;53.016;-2.260;2023-06-26T09:21:39;5.32;;;0.90;;
59306;SDS011;47983;53.016;-2.260;2023-06-26T09:24:08;5.45;;;1.48;;
59306;SDS011;47983;53.016;-2.260;2023-06-26T09:26:37;4.93;;;1.00;;
59306;SDS011;47983;53.016;-2.260;2023-06-26T09:29:06;3.42;;;0.75;;
59306;SDS011;47983;53.016;-2.260;2023-06-26T09:31:35;2.85;;;0.80;;
59306;SDS011;47983;53.016;-2.260;2023-06-26T09:34:09;3.40;;;0.75;;
59306;SDS011;47983;53.016;-2.260;2023-06-26T09:36:37;3.70;;;1.00;;
59306;SDS011;47983;53.016;-2.260;2023-06-26T09:39:07;2.88;;;0.65;;
59306;SDS011;47983;53.016;-2.260;2023-06-26T09:41:48;2.28;;;0.85;;
59306;SDS011;47983;53.016;-2.260;2023-06-26T09:44:20;5.05;;;1.15;;
59306;SDS011;47983;53.016;-2.260;2023-06-26T09:46:47;3.22;;;1.10;;
59306;SDS011;47983;53.016;-2.260;2023-06-26T09:49:15;3.28;;;0.60;;
59306;SDS011;47983;53.016;-2.260;2023-06-26T09:51:44;3.55;;;0.98;;
59306;SDS011;47983;53.016;-2.260;2023-06-26T09:54:11;4.05;;;1.23;;
59306;SDS011;47983;53.016;-2.260;2023-06-26T09:56:43;3.17;;;0.70;;
59306;SDS011;47983;53.016;-2.260;2023-06-26T09:59:10;4.25;;;0.82;;
59306;SDS011;47983;53.016;-2.260;2023-06-26T10:01:40;3.93;;;0.90;;
59306;SDS011;47983;53.016;-2.260;2023-06-26T10:04:12;2.53;;;0.35;;
59306;SDS011;47983;53.016;-2.260;2023-06-26T10:06:50;5.82;;;0.60;;
59306;SDS011;47983;53.016;-2.260;2023-06-26T10:09:22;7.20;;;0.70;;
59306;SDS011;47983;53.016;-2.260;2023-06-26T10:11:56;2.88;;;0.50;;
59306;SDS011;47983;53.016;-2.260;2023-06-26T10:14:33;4.55;;;0.65;;
59306;SDS011;47983;53.016;-2.260;2023-06-26T10:17:04;4.03;;;0.90;;
59306;SDS011;47983;53.016;-2.260;2023-06-26T10:19:37;1.35;;;0.50;;
59306;SDS011;47983;53.016;-2.260;2023-06-26T10:22:06;4.28;;;0.50;;
59306;SDS011;47983;53.016;-2.260;2023-06-26T10:24:35;4.18;;;0.60;;
59306;SDS011;47983;53.016;-2.260;2023-06-26T10:27:06;3.55;;;0.77;;
59306;SDS011;47983;53.016;-2.260;2023-06-26T10:29:44;4.20;;;0.60;;
59306;SDS011;47983;53.016;-2.260;2023-06-26T10:32:19;3.80;;;0.85;;
59306;SDS011;47983;53.016;-2.260;2023-06-26T10:34:50;3.67;;;0.65;;
59306;SDS011;47983;53.016;-2.260;2023-06-26T10:37:19;7.68;;;0.80;;
59306;SDS011;47983;53.016;-2.260;2023-06-26T10:42:20;3.00;;;0.63;;
59306;SDS011;47983;53.016;-2.260;2023-06-26T10:45:36;3.78;;;0.63;;
59306;SDS011;47983;53.016;-2.260;2023-06-26T10:47:56;2.17;;;0.65;;
59306;SDS011;47983;53.016;-2.260;2023-06-26T10:50:25;3.67;;;0.95;;
59306;SDS011;47983;53.016;-2.260;2023-06-26T10:55:51;3.53;;;0.77;;
59306;SDS011;47983;53.016;-2.260;2023-06-26T10:58:31;3.70;;;0.50;;
59306;SDS011;47983;53.016;-2.260;2023-06-26T11:03:46;7.55;;;0.85;;
59306;SDS011;47983;53.016;-2.260;2023-06-26T11:06:31;5.15;;;0.75;;
59306;SDS011;47983;53.016;-2.260;2023-06-26T11:12:15;4.53;;;0.68;;
59306;SDS011;47983;53.016;-2.260;2023-06-26T11:14:26;2.78;;;0.60;;
59306;SDS011;47983;53.016;-2.260;2023-06-26T11:16:55;4.18;;;0.90;;
59306;SDS011;47983;53.016;-2.260;2023-06-26T11:19:24;2.50;;;0.60;;
59306;SDS011;47983;53.016;-2.260;2023-06-26T11:21:58;5.88;;;1.00;;
59306;SDS011;47983;53.016;-2.260;2023-06-26T11:24:27;1.50;;;0.55;;
59306;SDS011;47983;53.016;-2.260;2023-06-26T11:26:59;5.45;;;0.82;;
59306;SDS011;47983;53.016;-2.260;2023-06-26T11:29:27;4.68;;;0.60;;
59306;SDS011;47983;53.016;-2.260;2023-06-26T11:31:59;5.13;;;0.77;;
59306;SDS011;47983;53.016;-2.260;2023-06-26T11:34:31;3.90;;;0.60;;
59306;SDS011;47983;53.016;-2.260;2023-06-26T11:36:59;4.57;;;0.60;;
59306;SDS011;47983;53.016;-2.260;2023-06-26T11:39:28;3.03;;;0.55;;
59306;SDS011;47983;53.016;-2.260;2023-06-26T11:41:56;6.13;;;0.95;;
59306;SDS011;47983;53.016;-2.260;2023-06-26T11:44:24;2.60;;;0.45;;
59306;SDS011;47983;53.016;-2.260;2023-06-26T11:46:56;4.97;;;0.80;;
59306;SDS011;47983;53.016;-2.260;2023-06-26T11:49:24;3.22;;;0.60;;
59306;SDS011;47983;53.016;-2.260;2023-06-26T11:51:53;3.53;;;0.77;;
59306;SDS011;47983;53.016;-2.260;2023-06-26T11:54:25;2.75;;;0.50;;
59306;SDS011;47983;53.016;-2.260;2023-06-26T11:56:54;3.75;;;0.60;;
59306;SDS011;47983;53.016;-2.260;2023-06-26T11:59:24;5.10;;;0.60;;
59306;SDS011;47983;53.016;-2.260;2023-06-26T12:02:05;4.22;;;0.60;;
59306;SDS011;47983;53.016;-2.260;2023-06-26T12:04:43;2.78;;;0.47;;
59306;SDS011;47983;53.016;-2.260;2023-06-26T12:07:12;3.78;;;0.82;;
59306;SDS011;47983;53.016;-2.260;2023-06-26T12:09:41;4.07;;;1.10;;
59306;SDS011;47983;53.016;-2.260;2023-06-26T12:12:14;1.77;;;0.50;;
59306;SDS011;47983;53.016;-2.260;2023-06-26T12:14:45;4.65;;;0.73;;
59306;SDS011;47983;53.016;-2.260;2023-06-26T12:17:13;4.78;;;0.47;;
59306;SDS011;47983;53.016;-2.260;2023-06-26T12:19:47;2.60;;;0.47;;
59306;SDS011;47983;53.016;-2.260;2023-06-26T12:22:18;2.80;;;0.85;;
59306;SDS011;47983;53.016;-2.260;2023-06-26T12:24:46;3.20;;;1.00;;
59306;SDS011;47983;53.016;-2.260;2023-06-26T12:27:15;3.38;;;0.60;;
59306;SDS011;47983;53.016;-2.260;2023-06-26T12:29:52;5.63;;;0.73;;
59306;SDS011;47983;53.016;-2.260;2023-06-26T12:32:24;1.95;;;0.65;;
59306;SDS011;47983;53.016;-2.260;2023-06-26T12:34:53;3.03;;;0.88;;
59306;SDS011;47983;53.016;-2.260;2023-06-26T12:37:24;3.95;;;0.70;;
59306;SDS011;47983;53.016;-2.260;2023-06-26T12:39:52;1.75;;;0.50;;
59306;SDS011;47983;53.016;-2.260;2023-06-26T12:42:28;1.80;;;0.57;;
59306;SDS011;47983;53.016;-2.260;2023-06-26T12:44:59;3.47;;;0.40;;
59306;SDS011;47983;53.016;-2.260;2023-06-26T12:48:06;2.63;;;0.63;;
59306;SDS011;47983;53.016;-2.260;2023-06-26T12:50:52;6.75;;;0.60;;
59306;SDS011;47983;53.016;-2.260;2023-06-26T12:53:20;4.30;;;0.90;;
59306;SDS011;47983;53.016;-2.260;2023-06-26T12:55:48;1.83;;;0.40;;
59306;SDS011;47983;53.016;-2.260;2023-06-26T12:58:16;3.25;;;0.85;;
59306;SDS011;47983;53.016;-2.260;2023-06-26T13:00:44;3.42;;;0.50;;
59306;SDS011;47983;53.016;-2.260;2023-06-26T13:03:12;2.58;;;0.50;;
59306;SDS011;47983;53.016;-2.260;2023-06-26T13:05:40;1.60;;;0.57;;
59306;SDS011;47983;53.016;-2.260;2023-06-26T13:08:07;4.43;;;0.45;;
59306;SDS011;47983;53.016;-2.260;2023-06-26T13:10:35;2.15;;;0.50;;
59306;SDS011;47983;53.016;-2.260;2023-06-26T13:13:03;1.38;;;0.60;;
59306;SDS011;47983;53.016;-2.260;2023-06-26T13:15:30;4.43;;;1.23;;
59306;SDS011;47983;53.016;-2.260;2023-06-26T13:17:58;3.92;;;0.60;;
59306;SDS011;47983;53.016;-2.260;2023-06-26T13:20:26;2.67;;;0.57;;
59306;SDS011;47983;53.016;-2.260;2023-06-26T13:22:55;5.18;;;0.70;;
59306;SDS011;47983;53.016;-2.260;2023-06-26T13:25:23;3.60;;;0.75;;
59306;SDS011;47983;53.016;-2.260;2023-06-26T13:27:51;6.55;;;0.52;;
59306;SDS011;47983;53.016;-2.260;2023-06-26T13:30:19;2.47;;;0.70;;
59306;SDS011;47983;53.016;-2.260;2023-06-26T13:32:46;2.47;;;0.50;;
59306;SDS011;47983;53.016;-2.260;2023-06-26T13:35:14;1.95;;;0.60;;
59306;SDS011;47983;53.016;-2.260;2023-06-26T13:37:42;1.27;;;0.52;;
59306;SDS011;47983;53.016;-2.260;2023-06-26T13:40:10;1.45;;;0.43;;
59306;SDS011;47983;53.016;-2.260;2023-06-26T13:42:38;2.78;;;0.55;;
59306;SDS011;47983;53.016;-2.260;2023-06-26T13:45:07;3.97;;;0.50;;
59306;SDS011;47983;53.016;-2.260;2023-06-26T13:47:55;4.63;;;0.50;;
59306;SDS011;47983;53.016;-2.260;2023-06-26T13:50:23;1.10;;;0.35;;
59306;SDS011;47983;53.016;-2.260;2023-06-26T13:52:50;0.47;;;0.38;;
59306;SDS011;47983;53.016;-2.260;2023-06-26T13:55:18;1.17;;;0.30;;
59306;SDS011;47983;53.016;-2.260;2023-06-26T13:57:49;0.68;;;0.32;;
59306;SDS011;47983;53.016;-2.260;2023-06-26T14:00:17;1.10;;;0.50;;
59306;SDS011;47983;53.016;-2.260;2023-06-26T14:05:19;5.78;;;0.70;;
59306;SDS011;47983;53.016;-2.260;2023-06-26T14:08:01;3.33;;;0.63;;
59306;SDS011;47983;53.016;-2.260;2023-06-26T14:10:31;2.38;;;0.80;;
59306;SDS011;47983;53.016;-2.260;2023-06-26T14:13:00;4.85;;;0.73;;
59306;SDS011;47983;53.016;-2.260;2023-06-26T14:15:30;3.95;;;1.00;;
59306;SDS011;47983;53.016;-2.260;2023-06-26T14:17:57;1.80;;;0.50;;
59306;SDS011;47983;53.016;-2.260;2023-06-26T14:20:26;4.03;;;0.55;;
59306;SDS011;47983;53.016;-2.260;2023-06-26T14:22:54;3.53;;;0.60;;
59306;SDS011;47983;53.016;-2.260;2023-06-26T14:25:22;2.90;;;0.95;;
59306;SDS011;47983;53.016;-2.260;2023-06-26T14:27:49;5.85;;;0.80;;
59306;SDS011;47983;53.016;-2.260;2023-06-26T14:30:17;9.57;;;0.65;;
59306;SDS011;47983;53.016;-2.260;2023-06-26T14:32:45;4.20;;;0.90;;
59306;SDS011;47983;53.016;-2.260;2023-06-26T14:35:13;3.60;;;0.50;;
59306;SDS011;47983;53.016;-2.260;2023-06-26T14:37:40;6.03;;;0.88;;
59306;SDS011;47983;53.016;-2.260;2023-06-26T14:40:13;4.55;;;0.70;;
59306;SDS011;47983;53.016;-2.260;2023-06-26T14:42:41;4.25;;;0.98;;
59306;SDS011;47983;53.016;-2.260;2023-06-26T14:45:10;2.70;;;0.63;;
59306;SDS011;47983;53.016;-2.260;2023-06-26T14:47:39;5.93;;;1.02;;
59306;SDS011;47983;53.016;-2.260;2023-06-26T14:50:07;17.70;;;1.30;;
59306;SDS011;47983;53.016;-2.260;2023-06-26T14:52:36;6.40;;;0.90;;
59306;SDS011;47983;53.016;-2.260;2023-06-26T14:55:04;2.78;;;0.75;;
59306;SDS011;47983;53.016;-2.260;2023-06-26T15:00:02;4.60;;;0.80;;
59306;SDS011;47983;53.016;-2.260;2023-06-26T15:02:31;3.90;;;0.83;;
59306;SDS011;47983;53.016;-2.260;2023-06-26T15:04:58;2.33;;;0.60;;
59306;SDS011;47983;53.016;-2.260;2023-06-26T15:07:26;4.68;;;0.65;;
59306;SDS011;47983;53.016;-2.260;2023-06-26T15:09:54;4.47;;;1.00;;
59306;SDS011;47983;53.016;-2.260;2023-06-26T15:12:22;3.72;;;0.90;;
59306;SDS011;47983;53.016;-2.260;2023-06-26T15:14:50;2.58;;;0.60;;
59306;SDS011;47983;53.016;-2.260;2023-06-26T15:17:19;8.05;;;1.33;;
59306;SDS011;47983;53.016;-2.260;2023-06-26T15:19:47;6.72;;;1.20;;
59306;SDS011;47983;53.016;-2.260;2023-06-26T15:22:17;2.47;;;0.65;;